Time;durP1;ratioP1;P1;durP2;ratioP2;P2;SDS_P1;SDS_P2;PMS_P1;PMS_P2;Temp;Humidity;BMP_temperature;BMP_pressure;BME280_temperature;BME280_humidity;BME280_pressure;Samples;Min_cycle;Max_cycle;Signal;HPM_P1;HPM_P2
2022/09/17 00:02:12;;;;;;;;;;;;;;;12.76;78.01;101472.28;4992353;28;19955;-81
2022/09/17 00:04:37;;;;;;;;;;;;;;;12.74;78.19;101471.50;4994511;28;19922;-81
2022/09/17 00:07:03;;;;;;;;;;;;;;;12.71;78.08;101471.59;5001033;28;20009;-81
2022/09/17 00:09:28;;;;;;;;;;;;;;;12.68;78.31;101477.00;4987351;28;19929;-81
2022/09/17 00:11:53;;;;;;;;;;;;;;;12.69;78.62;101481.31;5003004;28;19921;-81
2022/09/17 00:14:19;;;;;;;;;;;;;;;12.69;78.63;101481.31;5021205;28;19913;-81
2022/09/17 00:16:45;;;;;;;;;;;;;;;12.71;78.87;101487.38;4995206;28;19984;-81
2022/09/17 00:19:18;;;;;;;;;;;;;;;12.73;78.78;101482.06;4998584;28;20211;-81
2022/09/17 00:21:44;;;;;;;;;;;;;;;12.73;78.92;101488.16;5008106;28;19918;-81
2022/09/17 00:24:10;;;;;;;;;;;;;;;12.74;78.85;101481.16;5002543;28;20246;-81
2022/09/17 00:26:35;;;;;;;;;;;;;;;12.74;78.74;101482.00;5019015;28;19971;-81
2022/09/17 00:29:01;;;;;;;;;;;;;;;12.75;79.19;101482.84;5020564;28;19924;-81
2022/09/17 00:31:27;;;;;;;;;;;;;;;12.75;79.11;101496.00;4995568;28;19918;-81
2022/09/17 00:33:53;;;;;;;;;;;;;;;12.75;79.08;101510.00;5014099;28;19914;-81
2022/09/17 00:36:19;;;;;;;;;;;;;;;12.69;78.17;101515.47;5017254;28;19948;-81
2022/09/17 00:38:47;;;;;;;;;;;;;;;12.61;77.24;101515.78;5006899;28;19922;-81
2022/09/17 00:41:12;;;;;;;;;;;;;;;12.54;77.29;101509.06;4981026;28;19910;-81
2022/09/17 00:43:40;;;;;;;;;;;;;;;12.52;77.61;101510.03;4996518;28;19921;-81
2022/09/17 00:46:11;;;;;;;;;;;;;;;12.49;77.60;101506.59;4992006;28;20119;-81
2022/09/17 00:48:36;;;;;;;;;;;;;;;12.47;77.73;101503.16;5001075;28;19910;-81
2022/09/17 00:51:04;;;;;;;;;;;;;;;12.49;77.99;101487.34;4994596;28;20175;-81
2022/09/17 00:53:29;;;;;;;;;;;;;;;12.51;78.38;101493.41;5020637;28;19913;-81
2022/09/17 00:55:57;;;;;;;;;;;;;;;12.53;78.65;101488.94;4991848;28;20216;-81
2022/09/17 00:58:24;;;;;;;;;;;;;;;12.56;78.68;101480.09;5004714;28;19917;-81
2022/09/17 01:00:50;;;;;;;;;;;;;;;12.59;78.85;101485.25;5010281;28;19945;-81
2022/09/17 01:03:15;;;;;;;;;;;;;;;12.60;78.76;101490.41;5006540;28;19932;-81
2022/09/17 01:05:48;;;;;;;;;;;;;;;12.62;79.00;101492.97;5012721;28;19925;-81
2022/09/17 01:08:23;;;;;;;;;;;;;;;12.63;79.15;101489.47;4991461;28;19923;-81
2022/09/17 01:10:54;;;;;;;;;;;;;;;12.63;79.35;101492.94;5011070;28;19916;-81
2022/09/17 01:13:43;;;;;;;;;;;;;;;12.65;79.40;101490.25;5010960;28;19944;-81
2022/09/17 01:16:14;;;;;;;;;;;;;;;12.65;79.49;101485.84;4981970;28;19916;-81
2022/09/17 01:18:48;;;;;;;;;;;;;;;12.66;79.91;101486.69;5000140;28;19921;-81
2022/09/17 01:21:16;;;;;;;;;;;;;;;12.67;80.03;101484.00;5009107;28;19921;-81
2022/09/17 01:23:48;;;;;;;;;;;;;;;12.67;79.90;101489.25;4994093;28;19956;-81
2022/09/17 01:26:25;;;;;;;;;;;;;;;12.67;79.75;101481.38;4991842;28;19919;-81
2022/09/17 01:29:14;;;;;;;;;;;;;;;12.67;79.82;101481.38;5017736;28;19916;-81
2022/09/17 01:31:47;;;;;;;;;;;;;;;12.70;79.39;101490.03;5001240;28;19984;-81
2022/09/17 01:34:30;;;;;;;;;;;;;;;12.67;79.32;101485.78;5003961;28;19924;-81
2022/09/17 01:37:02;;;;;;;;;;;;;;;12.67;79.16;101491.88;4995168;28;20135;-81
2022/09/17 01:39:40;;;;;;;;;;;;;;;12.67;79.51;101486.63;5000356;28;20287;-81
2022/09/17 01:42:16;;;;;;;;;;;;;;;12.67;79.30;101488.41;5001592;28;19988;-81
2022/09/17 01:44:54;;;;;;;;;;;;;;;12.67;79.26;101491.03;5013917;28;20205;-81
2022/09/17 01:47:40;;;;;;;;;;;;;;;12.65;79.32;101488.47;5000017;28;19980;-81
2022/09/17 01:50:11;;;;;;;;;;;;;;;12.65;79.18;101490.25;4982284;28;19945;-81
2022/09/17 01:52:37;;;;;;;;;;;;;;;12.65;79.26;101500.75;4998102;28;19944;-81
2022/09/17 01:55:06;;;;;;;;;;;;;;;12.65;79.47;101506.00;4994788;28;19957;-81
2022/09/17 01:57:35;;;;;;;;;;;;;;;12.63;79.28;101494.72;5009991;28;19947;-81
2022/09/17 02:00:07;;;;;;;;;;;;;;;12.63;79.43;101494.72;5017494;28;19909;-81
2022/09/17 02:02:38;;;;;;;;;;;;;;;12.62;79.97;101498.25;5013293;28;19988;-81
2022/09/17 02:05:07;;;;;;;;;;;;;;;12.62;79.73;101491.19;5000923;28;19918;-81
2022/09/17 02:07:37;;;;;;;;;;;;;;;12.63;79.78;101497.34;5005403;28;19917;-81
2022/09/17 02:10:07;;;;;;;;;;;;;;;12.62;79.70;101498.25;4996996;28;20082;-81
2022/09/17 02:12:37;;;;;;;;;;;;;;;12.62;80.04;101501.72;4998985;28;19916;-81
2022/09/17 02:15:06;;;;;;;;;;;;;;;12.61;79.98;101507.06;4999313;28;19984;-81
2022/09/17 02:17:37;;;;;;;;;;;;;;;12.60;80.01;101516.69;5010173;28;20086;-81
2022/09/17 02:20:03;;;;;;;;;;;;;;;12.58;79.51;101509.78;5010118;28;19988;-81
2022/09/17 02:22:35;;;;;;;;;;;;;;;12.53;79.12;101509.94;5015486;28;19921;-81
2022/09/17 02:25:04;;;;;;;;;;;;;;;12.48;78.08;101510.16;5005069;28;20009;-81
2022/09/17 02:27:45;;;;;;;;;;;;;;;12.45;77.99;101504.16;4986906;28;20298;-81
2022/09/17 02:30:11;;;;;;;;;;;;;;;12.43;78.21;101509.47;5001362;28;19987;-81
2022/09/17 02:32:36;;;;;;;;;;;;;;;12.44;78.59;101502.41;5018884;28;19914;-81
2022/09/17 02:35:01;;;;;;;;;;;;;;;12.45;79.04;101498.91;5000902;28;19944;-81
2022/09/17 02:37:26;;;;;;;;;;;;;;;12.47;79.54;101511.03;5019410;28;20230;-81
2022/09/17 02:39:52;;;;;;;;;;;;;;;12.48;79.65;101515.41;5018476;28;19957;-81
2022/09/17 02:42:27;;;;;;;;;;;;;;;12.50;79.79;101504.84;5019119;28;20001;-81
2022/09/17 02:45:11;;;;;;;;;;;;;;;12.52;80.04;101515.28;5018304;28;19927;-81
2022/09/17 02:47:55;;;;;;;;;;;;;;;12.52;80.24;101525.81;5018747;28;20232;-81
2022/09/17 02:50:20;;;;;;;;;;;;;;;12.46;78.63;101522.47;5018500;28;19941;-82
2022/09/17 02:52:46;;;;;;;;;;;;;;;12.45;78.61;101526.00;5018583;28;20124;-81
2022/09/17 02:55:15;;;;;;;;;;;;;;;12.43;78.29;101524.38;5018486;28;19913;-81
2022/09/17 02:57:45;;;;;;;;;;;;;;;12.39;77.56;101514.91;5001258;28;20124;-81
2022/09/17 03:00:18;;;;;;;;;;;;;;;12.41;78.18;101529.69;5015538;28;19909;-81
2022/09/17 03:02:49;;;;;;;;;;;;;;;12.41;78.32;101526.19;5001034;28;20132;-81
2022/09/17 03:05:17;;;;;;;;;;;;;;;12.41;78.58;101528.81;5003090;28;19922;-81
2022/09/17 03:07:42;;;;;;;;;;;;;;;12.42;78.88;101531.38;5011371;28;19918;-81
2022/09/17 03:10:08;;;;;;;;;;;;;;;12.41;78.58;101524.41;5004439;28;19909;-81
2022/09/17 03:12:33;;;;;;;;;;;;;;;12.41;78.82;101527.06;5000133;28;19971;-81
2022/09/17 03:14:58;;;;;;;;;;;;;;;12.41;79.08;101521.78;5005663;28;19936;-81
2022/09/17 03:17:24;;;;;;;;;;;;;;;12.43;79.45;101514.72;4993209;28;19926;-81
2022/09/17 03:19:49;;;;;;;;;;;;;;;12.43;79.36;101517.34;4999018;28;20267;-81
2022/09/17 03:22:14;;;;;;;;;;;;;;;12.42;79.14;101512.97;5000227;28;20128;-81
2022/09/17 03:24:40;;;;;;;;;;;;;;;12.39;79.12;101513.13;4984657;28;19910;-81
2022/09/17 03:27:05;;;;;;;;;;;;;;;12.41;79.20;101507.81;5015753;28;19914;-81
2022/09/17 03:29:30;;;;;;;;;;;;;;;12.41;79.51;101515.69;5012580;28;19913;-81
2022/09/17 03:31:56;;;;;;;;;;;;;;;12.41;79.84;101516.53;4996281;28;19920;-81
2022/09/17 03:34:22;;;;;;;;;;;;;;;12.42;79.74;101509.50;5003994;28;20216;-81
2022/09/17 03:36:47;;;;;;;;;;;;;;;12.25;75.08;101510.16;5001134;28;19921;-81
2022/09/17 03:39:13;;;;;;;;;;;;;;;12.25;75.51;101500.50;4996484;28;19914;-81
2022/09/17 03:41:38;;;;;;;;;;;;;;;12.28;76.35;101502.16;5000511;28;19913;-81
2022/09/17 03:44:04;;;;;;;;;;;;;;;12.25;75.49;101499.66;5003552;28;19928;-81
2022/09/17 03:46:29;;;;;;;;;;;;;;;12.27;76.61;101510.94;4987932;28;19956;-81
2022/09/17 03:48:55;;;;;;;;;;;;;;;12.27;77.02;101506.53;5007895;28;20003;-81
2022/09/17 03:51:20;;;;;;;;;;;;;;;12.30;77.69;101502.97;5016806;28;20239;-81
2022/09/17 03:53:45;;;;;;;;;;;;;;;12.31;77.93;101503.81;5001602;28;19939;-81
2022/09/17 03:56:10;;;;;;;;;;;;;;;12.32;78.25;101509.00;5003005;28;19920;-81
2022/09/17 03:58:36;;;;;;;;;;;;;;;12.33;78.92;101513.34;5012037;28;19985;-81
2022/09/17 04:01:02;;;;;;;;;;;;;;;12.34;79.11;101514.22;4990150;28;19921;-81
2022/09/17 04:03:28;;;;;;;;;;;;;;;12.35;79.32;101518.53;4997324;28;19996;-81
2022/09/17 04:05:53;;;;;;;;;;;;;;;12.33;79.14;101510.69;5001174;28;19917;-81
2022/09/17 04:08:19;;;;;;;;;;;;;;;12.32;79.25;101506.38;4989445;28;19992;-81
2022/09/17 04:10:44;;;;;;;;;;;;;;;12.34;79.34;101520.31;5003289;28;19917;-81
2022/09/17 04:13:10;;;;;;;;;;;;;;;12.34;79.77;101520.31;5019575;28;19926;-81
2022/09/17 04:15:35;;;;;;;;;;;;;;;12.35;79.69;101529.03;5020547;28;19914;-81
2022/09/17 04:18:01;;;;;;;;;;;;;;;12.34;79.87;101522.09;5002751;28;20183;-81
2022/09/17 04:20:26;;;;;;;;;;;;;;;12.34;80.28;101522.09;4999758;28;19922;-81
2022/09/17 04:22:51;;;;;;;;;;;;;;;12.33;80.42;101523.00;5000701;28;20229;-81
2022/09/17 04:25:17;;;;;;;;;;;;;;;12.33;80.35;101526.47;5000162;28;20125;-81
2022/09/17 04:27:42;;;;;;;;;;;;;;;12.32;80.16;101524.78;5020026;28;19928;-81
2022/09/17 04:30:09;;;;;;;;;;;;;;;12.32;79.84;101523.91;5008203;28;20094;-81
2022/09/17 04:32:34;;;;;;;;;;;;;;;12.31;80.11;101523.03;5014492;28;19968;-81
2022/09/17 04:35:00;;;;;;;;;;;;;;;12.30;79.99;101521.34;4996308;28;19921;-81
2022/09/17 04:37:25;;;;;;;;;;;;;;;12.31;79.96;101520.41;5014954;28;20311;-81
2022/09/17 04:39:51;;;;;;;;;;;;;;;12.31;80.14;101523.03;4994578;28;20398;-81
2022/09/17 04:42:16;;;;;;;;;;;;;;;12.31;80.27;101530.91;5020160;28;19914;-81
2022/09/17 04:44:42;;;;;;;;;;;;;;;12.31;80.48;101562.44;5010173;28;20228;-81
2022/09/17 04:47:07;;;;;;;;;;;;;;;12.23;77.26;101554.00;5000488;28;20179;-81
2022/09/17 04:49:32;;;;;;;;;;;;;;;12.17;76.98;101551.56;5009197;28;19945;-81
2022/09/17 04:51:58;;;;;;;;;;;;;;;12.17;77.34;101551.56;4996864;28;19928;-81
2022/09/17 04:54:23;;;;;;;;;;;;;;;12.16;77.53;101544.63;4992584;28;20279;-81
2022/09/17 04:56:48;;;;;;;;;;;;;;;12.17;77.65;101543.69;4994875;28;19929;-81
2022/09/17 04:59:14;;;;;;;;;;;;;;;12.17;78.08;101549.81;5006112;28;19973;-81
2022/09/17 05:01:39;;;;;;;;;;;;;;;12.18;78.30;101542.78;5010280;28;19913;-81
2022/09/17 05:04:04;;;;;;;;;;;;;;;12.17;78.19;101557.69;4999036;28;19949;-81
2022/09/17 05:06:29;;;;;;;;;;;;;;;12.16;78.06;101547.25;4999142;28;19909;-81
2022/09/17 05:08:55;;;;;;;;;;;;;;;12.15;77.93;101554.28;4997393;28;19913;-81
2022/09/17 05:11:20;;;;;;;;;;;;;;;12.16;78.27;101549.88;4979019;28;19960;-81
2022/09/17 05:13:45;;;;;;;;;;;;;;;12.17;78.24;101541.06;4983877;28;20120;-81
2022/09/17 05:16:10;;;;;;;;;;;;;;;12.18;78.76;101550.69;4988037;28;20016;-81
2022/09/17 05:18:36;;;;;;;;;;;;;;;12.18;79.31;101551.53;4980752;28;20109;-81
2022/09/17 05:21:01;;;;;;;;;;;;;;;12.17;79.14;101556.81;5007081;28;19920;-81
2022/09/17 05:23:27;;;;;;;;;;;;;;;12.16;79.04;101561.22;4990524;28;19924;-81
2022/09/17 05:25:56;;;;;;;;;;;;;;;12.17;79.46;101551.56;5008939;28;19921;-81
2022/09/17 05:28:21;;;;;;;;;;;;;;;12.17;79.02;101556.81;5003367;28;19917;-81
2022/09/17 05:30:46;;;;;;;;;;;;;;;12.16;79.11;101560.38;4990065;28;20742;-81
2022/09/17 05:33:12;;;;;;;;;;;;;;;12.16;79.25;101555.97;5018314;28;20223;-81
2022/09/17 05:35:37;;;;;;;;;;;;;;;12.17;79.47;101556.81;5006068;28;19925;-81
2022/09/17 05:38:04;;;;;;;;;;;;;;;12.17;79.51;101549.81;4981681;28;19921;-81
2022/09/17 05:40:30;;;;;;;;;;;;;;;12.19;79.79;101549.78;4998332;28;19910;-81
2022/09/17 05:42:59;;;;;;;;;;;;;;;12.20;80.21;101546.22;4997283;28;19979;-81
2022/09/17 05:45:24;;;;;;;;;;;;;;;12.21;80.04;101545.31;5000840;28;19949;-81
2022/09/17 05:47:56;;;;;;;;;;;;;;;12.21;80.25;101554.03;4997567;28;20238;-81
2022/09/17 05:50:22;;;;;;;;;;;;;;;12.21;80.40;101538.28;4979148;28;19952;-81
2022/09/17 05:52:48;;;;;;;;;;;;;;;12.21;80.68;101537.44;4993629;28;20240;-81
2022/09/17 05:55:13;;;;;;;;;;;;;;;12.21;80.76;101538.28;5006145;28;19921;-81
2022/09/17 05:57:38;;;;;;;;;;;;;;;12.21;81.08;101546.16;4980153;28;19922;-81
2022/09/17 06:00:04;;;;;;;;;;;;;;;12.21;80.84;101558.44;4981482;28;19926;-81
2022/09/17 06:02:29;;;;;;;;;;;;;;;12.20;80.57;101560.19;4997005;28;19929;-81
2022/09/17 06:04:55;;;;;;;;;;;;;;;12.20;80.16;101567.22;4999236;28;19921;-81
2022/09/17 06:07:20;;;;;;;;;;;;;;;12.18;79.65;101576.94;5016993;28;19913;-81
2022/09/17 06:09:45;;;;;;;;;;;;;;;12.18;80.14;101608.44;4983224;28;20145;-81
2022/09/17 06:12:11;;;;;;;;;;;;;;;12.17;79.95;101601.47;4979202;28;19918;-81
2022/09/17 06:14:36;;;;;;;;;;;;;;;12.18;80.40;101590.06;4987163;28;19921;-81
2022/09/17 06:17:01;;;;;;;;;;;;;;;12.18;80.48;101596.16;4985531;28;20164;-81
2022/09/17 06:19:27;;;;;;;;;;;;;;;12.19;80.56;101587.38;5016737;28;19973;-81
2022/09/17 06:21:52;;;;;;;;;;;;;;;12.20;80.91;101593.47;4972674;28;19928;-81
2022/09/17 06:24:17;;;;;;;;;;;;;;;12.21;80.79;101608.34;4982527;28;19921;-81
2022/09/17 06:26:43;;;;;;;;;;;;;;;12.16;80.20;101587.47;4989142;28;20241;-81
2022/09/17 06:29:08;;;;;;;;;;;;;;;12.11;79.75;101586.78;4962818;28;20125;-81
2022/09/17 06:31:34;;;;;;;;;;;;;;;12.09;79.84;101583.34;5001817;28;19918;-81
2022/09/17 06:33:59;;;;;;;;;;;;;;;12.09;80.33;101586.84;4968725;28;20272;-81
2022/09/17 06:36:24;;;;;;;;;;;;;;;12.12;80.64;101583.25;4989726;28;20251;-81
2022/09/17 06:38:50;;;;;;;;;;;;;;;12.14;80.73;101584.06;4998625;28;20249;-82
2022/09/17 06:41:15;;;;;;;;;;;;;;;12.15;80.94;101582.28;4981423;28;19922;-81
2022/09/17 06:43:41;;;;;;;;;;;;;;;12.17;81.13;101598.84;5007697;28;19921;-81
2022/09/17 06:46:07;;;;;;;;;;;;;;;12.17;81.53;101604.09;4990310;28;19917;-81
2022/09/17 06:48:33;;;;;;;;;;;;;;;12.15;81.41;101604.16;5003522;28;19913;-81
2022/09/17 06:51:03;;;;;;;;;;;;;;;12.14;81.17;101606.84;4982745;28;19953;-81
2022/09/17 06:53:28;;;;;;;;;;;;;;;12.15;81.28;101595.41;4995209;28;19940;-81
2022/09/17 06:55:55;;;;;;;;;;;;;;;12.16;81.48;101597.13;5000648;28;20223;-81
2022/09/17 06:58:21;;;;;;;;;;;;;;;12.16;81.80;101591.88;5001226;28;20200;-81
2022/09/17 07:00:46;;;;;;;;;;;;;;;12.15;81.60;101596.28;4983163;28;20318;-81
2022/09/17 07:03:11;;;;;;;;;;;;;;;12.16;81.62;101598.00;4994496;28;20242;-82
2022/09/17 07:05:37;;;;;;;;;;;;;;;12.18;81.78;101596.16;4985014;28;19929;-81
2022/09/17 07:08:02;;;;;;;;;;;;;;;12.21;81.86;101609.19;5008007;28;19960;-81
2022/09/17 07:10:28;;;;;;;;;;;;;;;12.22;82.15;101610.03;4986860;28;19905;-81
2022/09/17 07:12:53;;;;;;;;;;;;;;;12.22;81.93;101605.63;4990524;28;19906;-82
2022/09/17 07:15:19;;;;;;;;;;;;;;;12.22;82.04;101610.03;5005405;28;19992;-82
2022/09/17 07:17:45;;;;;;;;;;;;;;;12.21;82.03;101598.69;5007523;28;19921;-81
2022/09/17 07:20:11;;;;;;;;;;;;;;;12.19;81.33;101605.78;4979932;28;19921;-81
2022/09/17 07:22:36;;;;;;;;;;;;;;;12.18;81.21;101597.94;4976397;28;19914;-81
2022/09/17 07:25:02;;;;;;;;;;;;;;;12.18;81.82;101597.94;5013226;28;19917;-82
2022/09/17 07:27:27;;;;;;;;;;;;;;;12.19;81.68;101591.78;5005072;28;20105;-81
2022/09/17 07:29:53;;;;;;;;;;;;;;;12.20;81.90;101591.72;5000827;28;19922;-81
2022/09/17 07:32:18;;;;;;;;;;;;;;;12.20;82.11;101586.47;4983425;28;19925;-81
2022/09/17 07:34:43;;;;;;;;;;;;;;;12.22;82.05;101587.25;4986574;28;19964;-81
2022/09/17 07:37:08;;;;;;;;;;;;;;;12.23;82.36;101586.34;4976265;28;20266;-81
2022/09/17 07:39:35;;;;;;;;;;;;;;;12.24;82.52;101582.84;4994047;28;20117;-81
2022/09/17 07:42:00;;;;;;;;;;;;;;;12.26;82.75;101583.63;4994316;28;20095;-81
2022/09/17 07:44:25;;;;;;;;;;;;;;;12.26;82.77;101588.00;4995424;28;19924;-81
2022/09/17 07:46:50;;;;;;;;;;;;;;;12.26;82.57;101585.38;4994553;28;19936;-81
2022/09/17 07:49:16;;;;;;;;;;;;;;;12.27;82.55;101594.97;4997035;28;20029;-81
2022/09/17 07:51:41;;;;;;;;;;;;;;;12.28;82.13;101612.47;5002042;28;19922;-81
2022/09/17 07:54:06;;;;;;;;;;;;;;;12.27;81.80;101611.59;4996043;28;19922;-81
2022/09/17 07:56:31;;;;;;;;;;;;;;;12.23;80.65;101611.78;5003374;28;19950;-81
2022/09/17 07:58:57;;;;;;;;;;;;;;;12.21;80.34;101614.44;4996470;28;19929;-81
2022/09/17 08:01:22;;;;;;;;;;;;;;;12.22;80.29;101618.75;4994245;28;19922;-81
2022/09/17 08:03:51;;;;;;;;;;;;;;;12.24;80.48;101610.84;4985207;28;19956;-82
2022/09/17 08:06:18;;;;;;;;;;;;;;;12.25;80.58;101610.78;4979283;28;19910;-81
2022/09/17 08:08:44;;;;;;;;;;;;;;;12.23;79.58;101606.53;4990362;28;20101;-81
2022/09/17 08:11:13;;;;;;;;;;;;;;;12.23;79.13;101607.38;4986862;28;19952;-81
2022/09/17 08:13:39;;;;;;;;;;;;;;;12.26;79.59;101606.38;4988398;28;19917;-81
2022/09/17 08:16:05;;;;;;;;;;;;;;;12.26;80.07;101612.53;4991194;28;20253;-81
2022/09/17 08:18:31;;;;;;;;;;;;;;;12.27;80.14;101603.72;4985853;28;20297;-81
2022/09/17 08:20:58;;;;;;;;;;;;;;;12.27;79.57;101601.09;5009243;28;19956;-81
2022/09/17 08:23:23;;;;;;;;;;;;;;;12.29;79.74;101609.75;4999876;28;19984;-81
2022/09/17 08:25:55;;;;;;;;;;;;;;;12.31;79.77;101622.84;4994288;28;20322;-81
2022/09/17 08:28:21;;;;;;;;;;;;;;;12.29;78.80;101629.94;4999390;28;19925;-81
2022/09/17 08:30:47;;;;;;;;;;;;;;;12.32;79.45;101621.09;4980770;28;20335;-81
2022/09/17 08:33:12;;;;;;;;;;;;;;;12.33;79.67;101639.41;4983239;28;19956;-81
2022/09/17 08:35:37;;;;;;;;;;;;;;;12.33;79.50;101631.53;4997640;28;19922;-81
2022/09/17 08:38:03;;;;;;;;;;;;;;;12.34;80.08;101633.25;4980530;28;19921;-81
2022/09/17 08:40:28;;;;;;;;;;;;;;;12.34;80.08;101627.16;4988427;28;20274;-81
2022/09/17 08:42:59;;;;;;;;;;;;;;;12.33;80.24;101622.78;4989554;28;19914;-81
2022/09/17 08:45:25;;;;;;;;;;;;;;;12.33;80.38;101626.28;4991360;28;19917;-81
2022/09/17 08:47:53;;;;;;;;;;;;;;;12.33;80.41;101621.00;5007006;28;19921;-81
2022/09/17 08:50:40;;;;;;;;;;;;;;;12.36;80.64;101623.53;5002904;28;19909;-81
2022/09/17 08:53:06;;;;;;;;;;;;;;;12.38;80.53;101613.00;4984921;28;19940;-81
2022/09/17 08:55:36;;;;;;;;;;;;;;;12.38;80.79;101608.59;4983709;28;20252;-81
2022/09/17 08:58:13;;;;;;;;;;;;;;;12.43;80.95;101619.78;4998021;28;20150;-81
2022/09/17 09:00:42;;;;;;;;;;;;;;;12.44;80.55;101616.25;4996681;28;20288;-81
2022/09/17 09:03:34;;;;;;;;;;;;;;;12.44;80.56;101624.16;5009122;28;19922;-81
2022/09/17 09:06:00;;;;;;;;;;;;;;;12.43;80.10;101624.19;4989246;28;19917;-82
2022/09/17 09:08:37;;;;;;;;;;;;;;;12.42;80.00;101625.94;4986768;28;19918;-82
2022/09/17 09:11:04;;;;;;;;;;;;;;;12.45;79.54;101628.47;4994583;28;19996;-82
2022/09/17 09:13:32;;;;;;;;;;;;;;;12.46;79.18;101624.94;4981184;28;19918;-82
2022/09/17 09:15:59;;;;;;;;;;;;;;;12.47;78.92;101625.78;5000752;28;19921;-81
2022/09/17 09:18:27;;;;;;;;;;;;;;;12.50;79.69;101630.94;4992516;28;20260;-81
2022/09/17 09:20:56;;;;;;;;;;;;;;;12.54;79.60;101636.94;4977525;28;19910;-81
2022/09/17 09:23:21;;;;;;;;;;;;;;;12.54;79.55;101637.78;4996868;28;19918;-81
2022/09/17 09:25:52;;;;;;;;;;;;;;;12.55;79.75;101639.53;4971423;28;19925;-81
2022/09/17 09:28:36;;;;;;;;;;;;;;;12.57;79.56;101637.69;5002593;28;19976;-81
2022/09/17 09:31:16;;;;;;;;;;;;;;;12.61;79.54;101643.69;5002157;28;19929;-81
2022/09/17 09:33:42;;;;;;;;;;;;;;;12.62;79.61;101650.66;4994670;28;19925;-81
2022/09/17 09:36:13;;;;;;;;;;;;;;;12.62;78.99;101637.50;5005438;28;20082;-81
2022/09/17 09:38:41;;;;;;;;;;;;;;;12.61;79.49;101644.53;4979293;28;19928;-81
2022/09/17 09:41:15;;;;;;;;;;;;;;;12.63;79.57;101636.59;5007394;28;19917;-81
2022/09/17 09:43:49;;;;;;;;;;;;;;;12.63;79.62;101640.09;4983309;28;20263;-81
2022/09/17 09:46:23;;;;;;;;;;;;;;;12.64;79.55;101641.81;5007206;28;19964;-81
2022/09/17 09:49:04;;;;;;;;;;;;;;;12.67;79.75;101641.69;4989016;28;19973;-81
2022/09/17 09:51:52;;;;;;;;;;;;;;;12.70;79.68;101656.50;5003160;28;19925;-81
2022/09/17 09:54:18;;;;;;;;;;;;;;;12.71;79.94;101637.16;4992151;28;20151;-81
2022/09/17 09:56:50;;;;;;;;;;;;;;;12.71;79.72;101631.06;4987109;28;19949;-81
2022/09/17 09:59:17;;;;;;;;;;;;;;;12.70;79.79;101634.59;4993367;28;19917;-81
2022/09/17 10:01:43;;;;;;;;;;;;;;;12.70;80.02;101630.22;5002791;28;20383;-81
2022/09/17 10:04:20;;;;;;;;;;;;;;;12.72;79.92;101630.16;4975231;28;19918;-81
2022/09/17 10:06:46;;;;;;;;;;;;;;;12.75;80.17;101625.66;5005855;28;20231;-81
2022/09/17 10:09:12;;;;;;;;;;;;;;;12.75;80.00;101620.41;4972294;28;20241;-81
2022/09/17 10:11:38;;;;;;;;;;;;;;;12.77;80.15;101615.94;4998032;28;20141;-81
2022/09/17 10:14:23;;;;;;;;;;;;;;;12.83;79.83;101623.56;4964038;28;20195;-81
2022/09/17 10:16:48;;;;;;;;;;;;;;;12.87;79.83;101619.06;4997297;28;20241;-81
2022/09/17 10:19:24;;;;;;;;;;;;;;;12.91;79.19;101630.31;4991356;28;19921;-81
2022/09/17 10:21:50;;;;;;;;;;;;;;;12.97;77.64;101628.31;4997579;28;20124;-81
2022/09/17 10:24:26;;;;;;;;;;;;;;;12.98;76.26;101650.19;4997872;28;19917;-81
2022/09/17 10:26:59;;;;;;;;;;;;;;;12.91;75.87;101677.63;5004540;28;19921;-81
2022/09/17 10:29:25;;;;;;;;;;;;;;;12.87;74.79;101677.75;4993794;28;20089;-81
2022/09/17 10:31:54;;;;;;;;;;;;;;;12.81;74.80;101659.59;4970287;28;19968;-81
2022/09/17 10:34:26;;;;;;;;;;;;;;;12.81;75.50;101658.72;4975453;28;19994;-81
2022/09/17 10:36:53;;;;;;;;;;;;;;;12.80;75.64;101657.00;5001069;28;19922;-81
2022/09/17 10:39:18;;;;;;;;;;;;;;;12.80;76.46;101647.34;4999128;28;20128;-81
2022/09/17 10:41:56;;;;;;;;;;;;;;;12.80;76.50;101644.72;5006040;28;20092;-81
2022/09/17 10:44:23;;;;;;;;;;;;;;;12.81;75.73;101635.06;4983793;28;20209;-81
2022/09/17 10:46:48;;;;;;;;;;;;;;;12.83;76.16;101633.25;4983378;28;20228;-81
2022/09/17 10:49:29;;;;;;;;;;;;;;;12.87;75.97;101626.94;5004363;28;19917;-81
2022/09/17 10:52:04;;;;;;;;;;;;;;;12.92;76.80;101624.16;5000490;28;19935;-81
2022/09/17 10:54:29;;;;;;;;;;;;;;;12.97;77.31;101644.09;4971044;28;19914;-81
2022/09/17 10:56:57;;;;;;;;;;;;;;;13.01;77.25;101642.22;5009795;28;19922;-81
2022/09/17 10:59:28;;;;;;;;;;;;;;;12.97;76.12;101641.47;4992676;28;19918;-81
2022/09/17 11:01:53;;;;;;;;;;;;;;;12.98;76.71;101632.66;5005218;28;20220;-81
2022/09/17 11:04:19;;;;;;;;;;;;;;;12.96;75.92;101636.25;4994191;28;19914;-81
2022/09/17 11:06:50;;;;;;;;;;;;;;;12.98;76.85;101635.28;5003599;28;20008;-81
2022/09/17 11:09:22;;;;;;;;;;;;;;;12.99;76.71;101630.91;4966441;28;19941;-81
2022/09/17 11:11:53;;;;;;;;;;;;;;;13.01;75.20;101626.44;5010773;28;20149;-81
2022/09/17 11:14:25;;;;;;;;;;;;;;;13.04;76.26;101621.91;4998475;28;19906;-81
2022/09/17 11:16:59;;;;;;;;;;;;;;;13.08;76.36;101622.66;4999343;28;19922;-81
2022/09/17 11:19:30;;;;;;;;;;;;;;;13.11;75.34;101614.63;4997808;28;21120;-81
2022/09/17 11:22:05;;;;;;;;;;;;;;;13.18;76.25;101604.72;5010678;28;19917;-81
2022/09/17 11:24:47;;;;;;;;;;;;;;;13.27;74.02;101628.03;4974022;28;19976;-81
2022/09/17 11:27:28;;;;;;;;;;;;;;;13.35;71.52;101606.72;5001586;28;19922;-81
2022/09/17 11:29:53;;;;;;;;;;;;;;;13.49;69.82;101617.53;4992135;28;20232;-81
2022/09/17 11:32:30;;;;;;;;;;;;;;;13.51;69.83;101626.22;5005519;28;19918;-81
2022/09/17 11:35:01;;;;;;;;;;;;;;;13.52;72.01;101630.59;5001714;28;19913;-81
2022/09/17 11:37:37;;;;;;;;;;;;;;;13.49;72.77;101619.31;5008372;28;19909;-81
2022/09/17 11:40:03;;;;;;;;;;;;;;;13.49;73.09;101624.59;5004505;28;20156;-81
2022/09/17 11:42:36;;;;;;;;;;;;;;;13.50;73.94;101631.56;5009721;28;19963;-81
2022/09/17 11:45:04;;;;;;;;;;;;;;;13.51;73.74;101635.91;5001440;28;20176;-81
2022/09/17 11:47:34;;;;;;;;;;;;;;;13.52;74.42;101635.84;5002033;28;19921;-81
2022/09/17 11:50:18;;;;;;;;;;;;;;;13.43;72.89;101646.75;4996652;28;19909;-81
2022/09/17 11:52:46;;;;;;;;;;;;;;;13.38;73.81;101646.06;5000103;28;20003;-81
2022/09/17 11:55:34;;;;;;;;;;;;;;;13.34;74.42;101655.84;5001301;28;19909;-81
2022/09/17 11:58:01;;;;;;;;;;;;;;;13.32;74.91;101646.31;4991418;28;19910;-81
2022/09/17 12:00:28;;;;;;;;;;;;;;;13.33;75.17;101642.75;5000427;28;19918;-81
2022/09/17 12:02:53;;;;;;;;;;;;;;;13.34;76.63;101628.69;4982458;28;19917;-81
2022/09/17 12:05:21;;;;;;;;;;;;;;;13.37;77.55;101628.56;4976132;28;19949;-81
2022/09/17 12:07:53;;;;;;;;;;;;;;;13.37;77.57;101632.06;4992557;28;19909;-81
2022/09/17 12:10:28;;;;;;;;;;;;;;;13.39;77.23;101629.38;4993191;28;19964;-81
2022/09/17 12:12:57;;;;;;;;;;;;;;;13.35;75.95;101628.66;4995861;28;19918;-81
2022/09/17 12:15:33;;;;;;;;;;;;;;;13.32;74.54;101633.16;4996320;28;20228;-81
2022/09/17 12:18:17;;;;;;;;;;;;;;;13.33;75.21;101638.34;4990463;28;19989;-81
2022/09/17 12:20:45;;;;;;;;;;;;;;;13.37;75.54;101636.44;4983378;28;19952;-81
2022/09/17 12:23:13;;;;;;;;;;;;;;;13.38;74.09;101627.66;4996470;28;19949;-81
2022/09/17 12:25:51;;;;;;;;;;;;;;;13.39;73.95;101622.34;5002255;28;19937;-81
2022/09/17 12:28:24;;;;;;;;;;;;;;;13.43;73.78;101620.44;4995791;28;19912;-81
2022/09/17 12:30:54;;;;;;;;;;;;;;;13.48;71.56;101630.75;5001708;28;19921;-81
2022/09/17 12:33:46;;;;;;;;;;;;;;;13.52;69.13;101622.69;5001970;28;19949;-81
2022/09/17 12:36:23;;;;;;;;;;;;;;;13.58;65.68;101622.44;4987522;28;19952;-81
2022/09/17 12:39:02;;;;;;;;;;;;;;;13.61;65.15;101624.09;4996104;28;19910;-81
2022/09/17 12:41:36;;;;;;;;;;;;;;;13.61;65.58;101632.84;4988090;28;20205;-81
2022/09/17 12:44:07;;;;;;;;;;;;;;;13.65;67.64;101645.88;5002835;28;19925;-81